Time;durP1;ratioP1;P1;durP2;ratioP2;P2;SDS_P1;SDS_P2;PMS_P1;PMS_P2;Temp;Humidity;BMP_temperature;BMP_pressure;BME280_temperature;BME280_humidity;BME280_pressure;Samples;Min_cycle;Max_cycle;Signal;HPM_P1;HPM_P2
2021/06/05 00:00:45;;;;;;;4.63;4.23;;;19.00;99.90;;;;;;5062404;28;20702;-94
2021/06/05 00:03:15;;;;;;;7.73;6.03;;;19.00;99.90;;;;;;5065358;28;20633;-94
2021/06/05 00:05:45;;;;;;;4.13;3.73;;;19.00;99.90;;;;;;5064907;28;20727;-95
2021/06/05 00:08:12;;;;;;;4.37;4.00;;;18.90;99.90;;;;;;5061411;28;20625;-93
2021/06/05 00:10:45;;;;;;;2.23;2.03;;;18.90;99.90;;;;;;5062257;28;21030;-94
2021/06/05 00:13:14;;;;;;;2.23;1.50;;;19.00;99.90;;;;;;5061734;28;20649;-94
2021/06/05 00:15:44;;;;;;;2.47;1.70;;;19.10;99.90;;;;;;5064116;28;21049;-95
2021/06/05 00:18:10;;;;;;;1.30;1.20;;;19.20;99.90;;;;;;5062432;28;20624;-94
2021/06/05 00:20:38;;;;;;;0.90;0.90;;;19.10;99.90;;;;;;5063042;28;20656;-94
2021/06/05 00:23:08;;;;;;;3.20;1.10;;;19.20;99.90;;;;;;5061306;28;21886;-94
2021/06/05 00:25:35;;;;;;;1.50;1.40;;;19.10;99.90;;;;;;5062574;28;20636;-95
2021/06/05 00:28:02;;;;;;;1.50;0.90;;;19.10;99.90;;;;;;5061200;28;20718;-94
2021/06/05 00:30:29;;;;;;;1.77;1.40;;;19.10;99.90;;;;;;5059617;28;21200;-94
2021/06/05 00:32:56;;;;;;;2.27;1.30;;;19.00;99.90;;;;;;5063064;28;21177;-94
2021/06/05 00:35:24;;;;;;;1.57;1.30;;;18.90;99.90;;;;;;5061535;28;20694;-94
2021/06/05 00:37:51;;;;;;;1.80;1.27;;;18.80;99.90;;;;;;5061107;28;20608;-93
2021/06/05 00:40:27;;;;;;;1.63;1.47;;;18.60;99.90;;;;;;5061331;28;21112;-93
2021/06/05 00:42:54;;;;;;;1.30;1.17;;;18.50;99.90;;;;;;5041276;28;20676;-94
2021/06/05 00:45:20;;;;;;;5.23;1.47;;;18.30;99.90;;;;;;5061993;28;20638;-94
2021/06/05 00:47:53;;;;;;;2.77;1.60;;;18.20;99.90;;;;;;5062064;28;20622;-94
2021/06/05 00:50:21;;;;;;;2.37;1.50;;;18.00;99.90;;;;;;5062485;28;21014;-94
2021/06/05 00:52:48;;;;;;;2.90;1.50;;;17.90;99.90;;;;;;5062948;28;20661;-94
2021/06/05 00:55:17;;;;;;;1.53;1.43;;;17.70;99.90;;;;;;5062973;28;20630;-95
2021/06/05 00:57:46;;;;;;;3.07;1.30;;;17.60;99.90;;;;;;5067444;28;20644;-94
2021/06/05 01:00:18;;;;;;;1.33;1.17;;;17.80;99.90;;;;;;5085361;28;20622;-96
2021/06/05 01:02:44;;;;;;;3.07;1.43;;;17.70;99.90;;;;;;5083066;28;20637;-96
2021/06/05 01:05:12;;;;;;;3.10;1.13;;;17.60;99.90;;;;;;5085702;28;20598;-96
2021/06/05 01:07:40;;;;;;;1.47;0.90;;;17.70;99.90;;;;;;5070228;28;20678;-95
2021/06/05 01:10:13;;;;;;;5.30;1.23;;;17.70;99.90;;;;;;5055293;28;20683;-95
2021/06/05 01:12:48;;;;;;;4.20;1.60;;;17.80;99.90;;;;;;5062959;28;20682;-96
2021/06/05 01:15:17;;;;;;;1.67;1.10;;;17.80;99.90;;;;;;5066065;28;20632;-95
2021/06/05 01:17:47;;;;;;;1.40;1.03;;;17.70;99.90;;;;;;5066440;28;20635;-94
2021/06/05 01:20:16;;;;;;;3.27;1.10;;;17.60;99.90;;;;;;5068191;28;20655;-94
2021/06/05 01:23:08;;;;;;;2.07;1.10;;;17.60;99.90;;;;;;5061911;28;20628;-94
2021/06/05 01:25:58;;;;;;;2.60;2.40;;;17.50;99.90;;;;;;5064035;28;20667;-95
2021/06/05 01:28:34;;;;;;;1.30;1.20;;;17.60;99.90;;;;;;5046403;28;21511;-94
2021/06/05 01:31:04;;;;;;;1.30;0.80;;;17.60;99.90;;;;;;5064100;28;20668;-93
2021/06/05 01:33:33;;;;;;;2.30;1.23;;;17.70;99.90;;;;;;5064102;28;20636;-93
2021/06/05 01:36:00;;;;;;;1.53;1.00;;;17.70;99.90;;;;;;5059159;28;20617;-93
2021/06/05 01:38:30;;;;;;;2.00;1.47;;;17.70;99.90;;;;;;5065223;28;20626;-93
2021/06/05 01:40:59;;;;;;;1.47;1.37;;;17.70;99.90;;;;;;5063090;28;20640;-94
2021/06/05 01:43:28;;;;;;;1.90;1.40;;;17.60;99.90;;;;;;5064676;28;20834;-93
2021/06/05 01:45:57;;;;;;;0.93;0.83;;;17.60;99.90;;;;;;5062334;28;20620;-94
2021/06/05 01:48:23;;;;;;;0.97;0.97;;;17.50;99.90;;;;;;5063306;28;20963;-93
2021/06/05 01:50:52;;;;;;;1.30;1.20;;;17.50;99.90;;;;;;5064871;28;20636;-93
2021/06/05 01:53:22;;;;;;;1.30;1.10;;;17.40;99.90;;;;;;5064194;28;21017;-94
2021/06/05 01:55:53;;;;;;;2.97;1.57;;;17.40;99.90;;;;;;5062552;28;21172;-93
2021/06/05 01:58:26;;;;;;;2.83;1.73;;;17.50;99.90;;;;;;5065913;28;20673;-93
2021/06/05 02:00:54;;;;;;;1.83;1.50;;;17.50;99.90;;;;;;5064116;28;20636;-94
2021/06/05 02:03:23;;;;;;;1.20;1.10;;;17.50;99.90;;;;;;5062826;28;20629;-93
2021/06/05 02:05:49;;;;;;;1.93;1.37;;;17.50;99.90;;;;;;5064474;28;20682;-94
2021/06/05 02:08:19;;;;;;;1.50;1.37;;;17.50;99.90;;;;;;5061661;28;20645;-94
2021/06/05 02:10:46;;;;;;;1.60;1.10;;;17.40;99.90;;;;;;5062078;28;20632;-94
2021/06/05 02:13:18;;;;;;;1.20;1.10;;;17.50;99.90;;;;;;5064352;28;21016;-93
2021/06/05 02:15:49;;;;;;;2.23;1.57;;;17.50;99.90;;;;;;5061408;28;20625;-93
2021/06/05 02:18:20;;;;;;;4.80;1.60;;;17.40;99.90;;;;;;5063085;28;21268;-93
2021/06/05 02:20:52;;;;;;;1.60;1.50;;;17.40;99.90;;;;;;5047199;28;20656;-94
2021/06/05 02:23:26;;;;;;;5.90;1.50;;;17.40;99.90;;;;;;5047265;28;20641;-96
2021/06/05 02:25:54;;;;;;;1.13;0.93;;;17.40;99.90;;;;;;5069324;28;21270;-96
2021/06/05 02:28:21;;;;;;;2.93;1.53;;;17.30;99.90;;;;;;5064305;28;20644;-96
2021/06/05 02:30:55;;;;;;;1.30;0.83;;;17.40;99.90;;;;;;5057690;28;20660;-96
2021/06/05 02:33:22;;;;;;;1.93;1.10;;;17.40;99.90;;;;;;5064428;28;21256;-96
2021/06/05 02:35:49;;;;;;;1.50;1.40;;;17.30;99.90;;;;;;5063011;28;20957;-95
2021/06/05 02:38:20;;;;;;;2.43;0.87;;;17.30;99.90;;;;;;5063836;28;20699;-94
2021/06/05 02:40:47;;;;;;;1.50;1.40;;;17.30;99.90;;;;;;5062173;28;20636;-94
2021/06/05 02:43:16;;;;;;;1.00;1.00;;;17.30;99.90;;;;;;5064251;28;20636;-96
2021/06/05 02:45:47;;;;;;;2.87;1.23;;;17.30;99.90;;;;;;5063826;28;20632;-95
2021/06/05 02:48:15;;;;;;;3.40;1.67;;;17.20;99.90;;;;;;5064047;28;20685;-94
2021/06/05 02:50:45;;;;;;;4.33;1.30;;;17.20;99.90;;;;;;5064345;28;20640;-95
2021/06/05 02:53:11;;;;;;;2.30;1.47;;;17.10;99.90;;;;;;5078576;28;20785;-93
2021/06/05 02:55:38;;;;;;;2.27;2.07;;;17.10;99.90;;;;;;5071915;28;20643;-94
2021/06/05 02:58:07;;;;;;;3.37;1.90;;;16.90;99.90;;;;;;5088987;28;20613;-96
2021/06/05 03:00:37;;;;;;;1.10;0.80;;;16.80;99.90;;;;;;5089163;28;20644;-95
2021/06/05 03:03:12;;;;;;;3.53;1.40;;;16.70;99.90;;;;;;5071644;28;20617;-93
2021/06/05 03:05:41;;;;;;;1.37;1.10;;;16.60;99.90;;;;;;5061331;28;20663;-95
2021/06/05 03:08:09;;;;;;;3.17;1.20;;;16.60;99.90;;;;;;5059141;28;20629;-94
2021/06/05 03:10:36;;;;;;;5.93;1.33;;;16.50;99.90;;;;;;5063574;28;20656;-95
2021/06/05 03:13:06;;;;;;;4.33;1.30;;;16.50;99.90;;;;;;5063200;28;20666;-95
2021/06/05 03:15:33;;;;;;;3.40;1.20;;;16.40;99.90;;;;;;5063084;28;20629;-96
2021/06/05 03:18:00;;;;;;;1.90;1.30;;;16.40;99.90;;;;;;5047704;28;20625;-96
2021/06/05 03:20:36;;;;;;;1.53;1.30;;;16.30;99.90;;;;;;5060031;28;20659;-96
2021/06/05 03:23:04;;;;;;;2.27;1.60;;;16.30;99.90;;;;;;5065799;28;20763;-96
2021/06/05 03:25:30;;;;;;;1.70;1.23;;;16.40;99.90;;;;;;5064317;28;20628;-96
2021/06/05 03:27:58;;;;;;;1.60;1.50;;;16.40;99.90;;;;;;5028511;28;20617;-96
2021/06/05 03:30:26;;;;;;;2.30;1.30;;;16.40;99.90;;;;;;5060655;28;20665;-95
2021/06/05 03:32:55;;;;;;;1.90;1.27;;;16.30;99.90;;;;;;5065021;28;20669;-96
2021/06/05 03:35:22;;;;;;;1.50;1.00;;;16.40;99.90;;;;;;5065058;28;20621;-96
2021/06/05 03:37:52;;;;;;;2.93;1.17;;;16.40;99.90;;;;;;5062448;28;20652;-96
2021/06/05 03:40:25;;;;;;;2.80;1.70;;;16.40;99.90;;;;;;5056826;28;21212;-95
2021/06/05 03:42:51;;;;;;;3.30;1.00;;;16.40;99.90;;;;;;5064458;28;20652;-96
2021/06/05 03:45:18;;;;;;;1.50;1.40;;;16.40;99.90;;;;;;5067282;28;20617;-95
2021/06/05 03:47:47;;;;;;;1.80;1.60;;;16.40;99.90;;;;;;5071713;28;20641;-96
2021/06/05 03:50:26;;;;;;;1.30;1.00;;;16.30;99.90;;;;;;5069537;28;21180;-96
2021/06/05 03:52:54;;;;;;;2.60;1.83;;;16.30;99.90;;;;;;5069620;28;20754;-96
2021/06/05 03:55:24;;;;;;;4.40;1.10;;;16.40;99.90;;;;;;5071687;28;20688;-96
2021/06/05 03:57:52;;;;;;;1.93;1.63;;;16.50;99.90;;;;;;5086871;28;20609;-96
2021/06/05 04:00:24;;;;;;;2.80;1.93;;;16.50;99.90;;;;;;5084173;28;20621;-96
2021/06/05 04:02:59;;;;;;;1.80;1.70;;;16.40;99.90;;;;;;5084035;28;20648;-95
2021/06/05 04:05:26;;;;;;;2.40;1.67;;;16.40;99.90;;;;;;5090908;28;20623;-96
2021/06/05 04:07:54;;;;;;;1.50;1.40;;;16.30;99.90;;;;;;5086714;28;20625;-96
2021/06/05 04:10:25;;;;;;;3.03;1.37;;;16.20;99.90;;;;;;5080396;28;20642;-96
2021/06/05 04:12:52;;;;;;;3.27;1.83;;;16.30;99.90;;;;;;5076758;28;20672;-96
2021/06/05 04:15:24;;;;;;;2.23;2.13;;;16.40;99.90;;;;;;5074457;28;21039;-95
2021/06/05 04:17:57;;;;;;;3.80;1.63;;;16.40;99.90;;;;;;5066647;28;20621;-94
2021/06/05 04:20:23;;;;;;;3.53;1.33;;;16.40;99.90;;;;;;5067669;28;20792;-95
2021/06/05 04:22:52;;;;;;;2.10;1.60;;;16.50;99.90;;;;;;5073364;28;20691;-95
2021/06/05 04:25:18;;;;;;;4.20;1.83;;;16.60;99.90;;;;;;5070071;28;21022;-96
2021/06/05 04:27:48;;;;;;;2.37;2.17;;;16.70;99.90;;;;;;5083692;28;20625;-95
2021/06/05 04:30:17;;;;;;;3.20;1.40;;;16.60;99.90;;;;;;5081449;28;20639;-96
2021/06/05 04:32:45;;;;;;;1.70;1.43;;;16.60;99.90;;;;;;5084869;28;20684;-96
2021/06/05 04:35:12;;;;;;;1.63;1.10;;;16.60;99.90;;;;;;5084193;28;20633;-94
2021/06/05 04:37:39;;;;;;;1.13;1.00;;;16.70;99.90;;;;;;5085003;28;20624;-95
2021/06/05 04:40:07;;;;;;;1.97;1.10;;;16.70;99.90;;;;;;5080210;28;20634;-95
2021/06/05 04:42:33;;;;;;;1.70;1.43;;;16.70;99.90;;;;;;5081771;28;20620;-95
2021/06/05 04:45:07;;;;;;;3.10;1.70;;;16.80;99.90;;;;;;5085646;28;20633;-95
2021/06/05 04:47:36;;;;;;;3.07;1.30;;;16.80;99.90;;;;;;5181476;22;20695;-96
2021/06/05 04:50:06;;;;;;;5.37;2.00;;;16.80;99.90;;;;;;5073723;28;20620;-96
2021/06/05 04:52:35;;;;;;;2.60;1.70;;;16.90;99.90;;;;;;5072752;28;20745;-96
2021/06/05 04:55:03;;;;;;;3.73;2.10;;;16.90;99.90;;;;;;5070171;28;20618;-95
2021/06/05 04:57:30;;;;;;;3.07;1.87;;;16.90;99.90;;;;;;5072990;28;20686;-96
2021/06/05 04:59:57;;;;;;;2.80;2.10;;;17.00;99.90;;;;;;5073433;28;20622;-96
2021/06/05 05:02:25;;;;;;;2.50;2.30;;;17.00;99.90;;;;;;5070844;28;20610;-96
2021/06/05 05:04:52;;;;;;;2.10;1.57;;;17.10;99.90;;;;;;5061054;28;20679;-95
2021/06/05 05:07:19;;;;;;;3.67;1.93;;;17.10;99.90;;;;;;5067638;28;20662;-96
2021/06/05 05:09:46;;;;;;;1.90;1.80;;;17.10;99.90;;;;;;5065696;28;20629;-96
2021/06/05 05:12:15;;;;;;;3.97;2.60;;;17.10;99.90;;;;;;5070497;28;20741;-95
2021/06/05 05:14:42;;;;;;;2.00;1.80;;;17.30;99.90;;;;;;5061205;28;20649;-94
2021/06/05 05:17:08;;;;;;;2.33;2.10;;;17.30;99.90;;;;;;5051524;28;20677;-94
2021/06/05 05:19:36;;;;;;;3.10;2.27;;;17.30;99.90;;;;;;5049453;28;20638;-93
2021/06/05 05:22:04;;;;;;;2.80;2.60;;;17.30;99.90;;;;;;5055089;28;20630;-94
2021/06/05 05:24:31;;;;;;;3.70;2.20;;;17.40;99.90;;;;;;5058551;28;20626;-93
2021/06/05 05:26:58;;;;;;;4.83;1.90;;;17.40;99.90;;;;;;5057808;28;20664;-94
2021/06/05 05:29:26;;;;;;;10.00;2.60;;;17.30;99.90;;;;;;5065701;28;20617;-94
2021/06/05 05:31:52;;;;;;;3.47;2.17;;;17.30;99.90;;;;;;5062726;28;21071;-92
2021/06/05 05:34:19;;;;;;;2.07;1.93;;;17.30;99.90;;;;;;5055109;28;21088;-92
2021/06/05 05:36:47;;;;;;;2.60;2.23;;;17.30;99.90;;;;;;5048943;28;20789;-94
2021/06/05 05:39:18;;;;;;;2.87;2.20;;;17.40;99.90;;;;;;5047974;28;20626;-94
2021/06/05 05:41:46;;;;;;;3.40;2.30;;;17.40;99.90;;;;;;5047462;28;20624;-94
2021/06/05 05:44:15;;;;;;;2.50;2.27;;;17.60;99.90;;;;;;5046869;28;20688;-94
2021/06/05 05:46:41;;;;;;;2.50;2.30;;;17.50;99.90;;;;;;5046436;28;20626;-95
2021/06/05 05:49:08;;;;;;;6.40;2.50;;;17.60;99.90;;;;;;5048647;28;20630;-95
2021/06/05 05:51:37;;;;;;;7.17;2.70;;;17.60;99.90;;;;;;5044275;28;20651;-95
2021/06/05 05:54:05;;;;;;;4.00;2.13;;;17.70;99.90;;;;;;5049654;28;20675;-94
2021/06/05 05:56:33;;;;;;;2.73;2.50;;;17.80;99.90;;;;;;5155775;22;20718;-96
2021/06/05 05:59:00;;;;;;;6.40;2.90;;;17.70;99.90;;;;;;5071692;28;20663;-95
2021/06/05 06:01:28;;;;;;;3.00;2.80;;;17.80;99.90;;;;;;5073981;28;20622;-96
2021/06/05 06:03:57;;;;;;;8.50;2.40;;;17.90;99.90;;;;;;5056954;28;20635;-96
2021/06/05 06:06:25;;;;;;;3.63;2.53;;;17.90;99.90;;;;;;5070934;28;20686;-96
2021/06/05 06:08:54;;;;;;;3.80;2.30;;;18.00;99.90;;;;;;5073095;28;20633;-95
2021/06/05 06:11:22;;;;;;;3.17;2.87;;;18.00;99.90;;;;;;5061945;28;20625;-86
2021/06/05 06:13:48;;;;;;;4.60;2.37;;;18.00;99.90;;;;;;5059321;28;20641;-86
2021/06/05 06:16:17;;;;;;;2.20;2.00;;;18.10;99.90;;;;;;5056311;28;20624;-86
2021/06/05 06:18:45;;;;;;;2.90;2.70;;;18.20;99.90;;;;;;5057319;28;20663;-86
2021/06/05 06:21:14;;;;;;;2.50;2.30;;;18.30;99.90;;;;;;5061303;28;20644;-86
2021/06/05 06:23:42;;;;;;;7.73;2.93;;;18.40;99.90;;;;;;5060475;28;20664;-84
2021/06/05 06:26:11;;;;;;;2.43;2.20;;;18.60;99.90;;;;;;5058217;28;20617;-87
2021/06/05 06:28:43;;;;;;;3.50;2.10;;;18.60;99.90;;;;;;5056141;28;21167;-87
2021/06/05 06:31:11;;;;;;;2.80;1.83;;;18.70;99.90;;;;;;5057134;28;21008;-87
2021/06/05 06:33:40;;;;;;;1.90;1.47;;;18.90;99.90;;;;;;5054371;28;20629;-87
2021/06/05 06:36:09;;;;;;;7.10;1.80;;;19.10;99.90;;;;;;5060228;28;20627;-85
2021/06/05 06:38:38;;;;;;;2.13;1.93;;;19.20;99.90;;;;;;5059592;28;21199;-86
2021/06/05 06:41:07;;;;;;;1.70;1.33;;;19.20;99.90;;;;;;5058015;28;20629;-88
2021/06/05 06:43:33;;;;;;;3.03;1.10;;;19.30;99.90;;;;;;5061675;28;20640;-86
2021/06/05 06:46:04;;;;;;;2.70;1.80;;;19.20;99.90;;;;;;5060446;28;20644;-86
2021/06/05 06:48:31;;;;;;;2.67;1.27;;;19.40;99.90;;;;;;5056441;28;20633;-86
2021/06/05 06:50:59;;;;;;;1.43;1.27;;;19.40;99.90;;;;;;5058158;28;20582;-85
2021/06/05 06:53:26;;;;;;;3.73;1.80;;;19.30;99.90;;;;;;5060783;28;20665;-85
2021/06/05 06:55:52;;;;;;;2.17;1.40;;;19.50;99.90;;;;;;5059452;28;20625;-89
2021/06/05 06:58:18;;;;;;;1.80;1.43;;;19.60;99.90;;;;;;5056538;28;21278;-88
2021/06/05 07:00:47;;;;;;;2.23;1.47;;;19.90;99.90;;;;;;5060384;28;20621;-87
2021/06/05 07:03:16;;;;;;;5.80;2.10;;;19.90;99.90;;;;;;5058328;28;21053;-87
2021/06/05 07:05:42;;;;;;;1.73;1.63;;;20.20;99.90;;;;;;5059465;28;20748;-87
2021/06/05 07:08:14;;;;;;;2.53;1.90;;;20.30;99.90;;;;;;5059632;28;20652;-87
2021/06/05 07:10:40;;;;;;;2.00;1.50;;;20.30;99.90;;;;;;5057645;28;20644;-87
2021/06/05 07:13:07;;;;;;;3.70;1.20;;;20.30;99.90;;;;;;5060900;28;20703;-88
2021/06/05 07:15:35;;;;;;;2.60;1.40;;;20.60;99.90;;;;;;5056250;28;21338;-87
2021/06/05 07:18:04;;;;;;;3.57;1.60;;;20.70;99.90;;;;;;5054572;28;20659;-88
2021/06/05 07:20:31;;;;;;;1.90;1.60;;;20.60;99.90;;;;;;5056712;28;20625;-87
2021/06/05 07:22:59;;;;;;;2.97;1.40;;;20.70;99.90;;;;;;5057268;28;20630;-86
2021/06/05 07:25:27;;;;;;;1.70;1.50;;;20.80;99.90;;;;;;5057333;28;21139;-87
2021/06/05 07:27:54;;;;;;;1.83;1.67;;;20.80;99.90;;;;;;5058884;28;20680;-87
2021/06/05 07:30:20;;;;;;;2.33;1.37;;;20.80;99.90;;;;;;5060235;28;20682;-89
2021/06/05 07:32:47;;;;;;;2.50;1.80;;;20.70;99.90;;;;;;5061135;28;20679;-87
2021/06/05 07:35:13;;;;;;;3.00;2.00;;;20.70;99.90;;;;;;5058976;28;20725;-87
2021/06/05 07:37:41;;;;;;;2.97;1.43;;;20.90;99.90;;;;;;5055861;28;20660;-87
2021/06/05 07:40:09;;;;;;;2.37;1.20;;;21.20;99.90;;;;;;5055478;28;20636;-88
2021/06/05 07:42:37;;;;;;;1.70;1.50;;;21.10;99.90;;;;;;5059087;28;20626;-88
2021/06/05 07:45:06;;;;;;;1.93;1.80;;;21.20;99.90;;;;;;5063712;28;20620;-88
2021/06/05 07:47:33;;;;;;;2.33;1.87;;;21.20;99.90;;;;;;5064111;28;21349;-87
2021/06/05 07:50:01;;;;;;;2.90;1.63;;;21.30;99.90;;;;;;5063414;28;21212;-88
2021/06/05 07:52:33;;;;;;;1.97;1.33;;;21.30;99.90;;;;;;5065301;28;20669;-87
2021/06/05 07:55:00;;;;;;;1.70;1.57;;;21.50;99.90;;;;;;5064620;28;20621;-88
2021/06/05 07:57:27;;;;;;;3.23;1.37;;;21.50;99.90;;;;;;5061812;28;20633;-88
2021/06/05 07:59:53;;;;;;;3.03;1.40;;;21.60;99.90;;;;;;5060190;28;20838;-88
2021/06/05 08:02:20;;;;;;;1.70;1.33;;;21.80;99.90;;;;;;5061394;28;20645;-87
2021/06/05 08:04:46;;;;;;;1.40;1.07;;;21.70;99.90;;;;;;5063468;28;20679;-88
2021/06/05 08:07:13;;;;;;;2.00;1.30;;;21.70;99.90;;;;;;5057798;28;21235;-88
2021/06/05 08:09:39;;;;;;;2.67;1.30;;;21.70;99.90;;;;;;5063502;28;20909;-88
2021/06/05 08:12:09;;;;;;;3.00;1.67;;;21.70;99.90;;;;;;5072008;28;21050;-88
2021/06/05 08:14:35;;;;;;;2.23;2.03;;;21.60;99.90;;;;;;5070658;28;20624;-88
2021/06/05 08:17:02;;;;;;;2.00;1.63;;;21.60;99.90;;;;;;5076609;28;20656;-88
2021/06/05 08:19:28;;;;;;;2.03;1.10;;;21.30;99.90;;;;;;5073973;28;20821;-87
2021/06/05 08:21:56;;;;;;;2.10;1.37;;;21.30;99.90;;;;;;5059795;28;20624;-88
2021/06/05 08:24:22;;;;;;;2.90;1.57;;;21.20;99.90;;;;;;5065023;28;21005;-88
2021/06/05 08:26:52;;;;;;;1.10;1.07;;;21.30;99.90;;;;;;5065293;28;20670;-88
2021/06/05 08:29:20;;;;;;;1.27;1.17;;;21.10;99.90;;;;;;5061841;28;20633;-88
2021/06/05 08:31:49;;;;;;;3.13;1.43;;;21.20;99.90;;;;;;5062023;28;20625;-88
2021/06/05 08:34:15;;;;;;;2.17;1.57;;;21.30;99.90;;;;;;5062213;28;20617;-88
2021/06/05 08:36:43;;;;;;;1.50;1.40;;;21.10;99.90;;;;;;5060445;28;20649;-88
2021/06/05 08:39:10;;;;;;;3.20;1.17;;;21.00;99.90;;;;;;5062514;28;20763;-87
2021/06/05 08:41:39;;;;;;;1.47;1.20;;;20.90;99.90;;;;;;5064354;28;20620;-86
2021/06/05 08:44:11;;;;;;;3.70;1.70;;;20.90;99.90;;;;;;5062461;28;21061;-87
2021/06/05 08:46:41;;;;;;;2.10;1.00;;;20.90;99.90;;;;;;5063648;28;20891;-88
2021/06/05 08:49:15;;;;;;;2.83;1.10;;;20.90;99.90;;;;;;5062812;28;20725;-87
2021/06/05 08:51:53;;;;;;;3.03;1.30;;;21.00;99.90;;;;;;5064275;28;20611;-87
2021/06/05 08:54:31;;;;;;;2.87;1.50;;;20.80;99.90;;;;;;5057151;28;20648;-87
2021/06/05 08:57:02;;;;;;;2.80;1.73;;;21.00;99.90;;;;;;5060527;28;20749;-87
2021/06/05 08:59:28;;;;;;;2.10;1.10;;;21.20;99.90;;;;;;5063984;28;21207;-87
2021/06/05 09:01:56;;;;;;;1.13;1.03;;;21.40;99.90;;;;;;5062493;28;20617;-88
2021/06/05 09:04:24;;;;;;;1.90;1.07;;;21.50;99.90;;;;;;5064960;28;22599;-88
2021/06/05 09:06:54;;;;;;;2.93;1.20;;;21.60;99.90;;;;;;5060950;28;21245;-89
2021/06/05 09:09:24;;;;;;;1.60;1.50;;;21.60;99.90;;;;;;5057719;28;20995;-88
2021/06/05 09:11:51;;;;;;;1.50;1.23;;;21.80;99.90;;;;;;5061506;28;20661;-88
2021/06/05 09:14:17;;;;;;;2.17;1.40;;;22.00;99.90;;;;;;5062416;28;20660;-88
2021/06/05 09:16:47;;;;;;;2.87;1.13;;;21.80;99.90;;;;;;5063097;28;20705;-88
2021/06/05 09:19:19;;;;;;;2.83;1.90;;;22.00;99.90;;;;;;5059563;28;20636;-88
2021/06/05 09:21:48;;;;;;;2.30;1.63;;;22.00;99.90;;;;;;5064447;28;21313;-88
2021/06/05 09:24:19;;;;;;;2.63;1.23;;;22.10;99.90;;;;;;5062591;28;20676;-88
2021/06/05 09:26:59;;;;;;;2.73;1.10;;;22.10;99.90;;;;;;5065098;28;20620;-88
2021/06/05 09:29:26;;;;;;;4.07;1.50;;;22.30;99.90;;;;;;5063155;28;20643;-88
2021/06/05 09:31:56;;;;;;;1.13;0.90;;;22.40;99.90;;;;;;5065655;28;21206;-87
2021/06/05 09:34:29;;;;;;;4.13;1.37;;;22.30;99.90;;;;;;5065889;28;21299;-86
2021/06/05 09:36:55;;;;;;;1.40;1.30;;;22.40;99.90;;;;;;5062372;28;20679;-88
2021/06/05 09:39:38;;;;;;;1.57;1.47;;;22.00;99.90;;;;;;5066022;28;20615;-87
2021/06/05 09:42:05;;;;;;;1.43;1.30;;;22.20;99.90;;;;;;5064155;28;21020;-87
2021/06/05 09:44:40;;;;;;;1.50;1.40;;;22.10;99.90;;;;;;5066681;28;20645;-86
2021/06/05 09:47:22;;;;;;;1.47;1.23;;;22.20;99.90;;;;;;5067959;28;20639;-85
2021/06/05 09:49:55;;;;;;;5.03;1.20;;;22.00;99.90;;;;;;5064603;28;21218;-86
2021/06/05 09:52:33;;;;;;;2.53;1.60;;;21.80;99.90;;;;;;5064398;28;20671;-86
2021/06/05 09:55:07;;;;;;;3.17;1.63;;;21.90;99.90;;;;;;5064859;28;20653;-86
2021/06/05 09:57:40;;;;;;;4.43;1.60;;;22.00;99.90;;;;;;5066232;28;20628;-86
2021/06/05 10:00:15;;;;;;;1.63;1.50;;;22.00;99.90;;;;;;5066887;28;21219;-86
2021/06/05 10:02:44;;;;;;;2.17;1.10;;;21.90;99.90;;;;;;5071744;28;20604;-86
2021/06/05 10:05:27;;;;;;;1.70;1.10;;;21.90;99.90;;;;;;5064211;28;20651;-86
2021/06/05 10:07:54;;;;;;;1.40;0.90;;;21.90;99.90;;;;;;5063295;28;21071;-86
2021/06/05 10:10:44;;;;;;;7.10;1.57;;;22.00;99.90;;;;;;5065316;28;20670;-87
2021/06/05 10:13:13;;;;;;;2.10;1.33;;;21.80;99.90;;;;;;5059986;28;20668;-86
2021/06/05 10:15:45;;;;;;;3.43;1.60;;;21.70;99.90;;;;;;5064681;28;21423;-87
2021/06/05 10:18:17;;;;;;;2.70;1.77;;;21.70;99.90;;;;;;5063406;28;20968;-87
2021/06/05 10:20:51;;;;;;;2.67;1.33;;;22.00;99.90;;;;;;5064382;28;20636;-87
2021/06/05 10:23:22;;;;;;;1.30;1.20;;;21.90;99.90;;;;;;5063854;28;21001;-87
2021/06/05 10:25:51;;;;;;;1.23;1.10;;;21.80;99.90;;;;;;5064561;28;20617;-86
2021/06/05 10:28:20;;;;;;;2.13;0.97;;;21.80;99.90;;;;;;5044929;28;20698;-87
2021/06/05 10:30:51;;;;;;;3.03;0.93;;;22.10;99.90;;;;;;5064741;28;20616;-87
2021/06/05 10:33:38;;;;;;;3.90;0.90;;;22.30;99.90;;;;;;5063726;28;20669;-87
2021/06/05 10:36:11;;;;;;;3.80;1.50;;;22.50;99.90;;;;;;5065532;28;20642;-87
2021/06/05 10:38:41;;;;;;;1.50;1.30;;;22.60;99.90;;;;;;5062205;28;20612;-87
2021/06/05 10:41:14;;;;;;;6.23;1.27;;;22.70;99.90;;;;;;5061841;28;20629;-86
2021/06/05 10:43:41;;;;;;;4.10;1.20;;;22.60;99.90;;;;;;5062580;28;20652;-87
2021/06/05 10:46:17;;;;;;;3.33;1.20;;;22.50;99.90;;;;;;5066489;28;20683;-86
2021/06/05 10:48:46;;;;;;;1.97;1.60;;;22.60;99.90;;;;;;5060134;28;20629;-87
2021/06/05 10:51:19;;;;;;;2.50;1.60;;;22.40;99.90;;;;;;5067332;28;20625;-87
2021/06/05 10:53:53;;;;;;;5.67;1.63;;;22.40;99.90;;;;;;5070369;28;21107;-87
2021/06/05 10:56:30;;;;;;;2.37;1.40;;;22.50;99.90;;;;;;5062443;28;20628;-87
2021/06/05 10:58:56;;;;;;;8.20;1.67;;;22.30;99.90;;;;;;5058960;28;20674;-87
2021/06/05 11:01:48;;;;;;;2.40;1.53;;;22.40;99.90;;;;;;5059886;28;20652;-87
2021/06/05 11:04:44;;;;;;;2.27;0.90;;;22.30;99.90;;;;;;5061849;28;20673;-86
2021/06/05 11:07:30;;;;;;;2.20;1.20;;;22.20;99.90;;;;;;5056621;28;20641;-87
2021/06/05 11:09:59;;;;;;;2.60;1.47;;;22.20;99.90;;;;;;5061290;28;20624;-87
2021/06/05 11:12:49;;;;;;;4.17;1.37;;;22.00;99.90;;;;;;5063318;28;20668;-86
2021/06/05 11:15:59;;;;;;;6.03;2.37;;;22.30;99.90;;;;;;5063701;28;20653;-86
2021/06/05 11:18:36;;;;;;;1.73;1.37;;;22.30;99.90;;;;;;5072940;28;20641;-87
2021/06/05 11:21:38;;;;;;;2.03;1.50;;;22.20;99.90;;;;;;5084647;28;20636;-87
2021/06/05 11:24:17;;;;;;;2.17;1.23;;;22.10;99.90;;;;;;5077780;28;20648;-87
2021/06/05 11:26:45;;;;;;;3.60;1.60;;;22.30;99.90;;;;;;5084039;28;20631;-85
2021/06/05 11:29:45;;;;;;;2.53;1.60;;;22.60;99.90;;;;;;5083624;28;20609;-86
2021/06/05 11:32:32;;;;;;;6.60;2.50;;;22.60;99.90;;;;;;5085007;28;20649;-87
2021/06/05 11:35:01;;;;;;;2.67;1.50;;;22.80;99.90;;;;;;5080076;28;20638;-87
2021/06/05 11:37:50;;;;;;;1.60;1.50;;;23.00;99.90;;;;;;5085128;28;20823;-86
2021/06/05 11:43:21;;;;;;;1.47;1.27;;;23.20;99.90;;;;;;5132714;27;20302;-86
2021/06/05 11:45:58;;;;;;;2.67;1.43;;;23.60;99.90;;;;;;5108686;28;20620;-86
2021/06/05 11:48:50;;;;;;;1.30;1.20;;;23.80;99.90;;;;;;5108870;28;20619;-87
2021/06/05 11:51:28;;;;;;;2.17;1.47;;;24.20;99.90;;;;;;5104315;28;21004;-87
2021/06/05 11:53:56;;;;;;;2.20;1.20;;;24.60;99.90;;;;;;5106547;28;20684;-87
2021/06/05 11:56:26;;;;;;;1.20;1.10;;;24.90;99.90;;;;;;5105138;28;20620;-87
2021/06/05 11:59:05;;;;;;;1.00;1.00;;;24.80;99.90;;;;;;5104638;28;20627;-86
2021/06/05 12:01:31;;;;;;;2.90;1.40;;;24.60;99.90;;;;;;5108745;28;20684;-86
2021/06/05 12:04:05;;;;;;;1.37;0.90;;;24.50;99.90;;;;;;5114201;28;21484;-87
2021/06/05 12:06:38;;;;;;;2.10;1.63;;;24.50;99.90;;;;;;5114823;28;20616;-86
2021/06/05 12:09:16;;;;;;;2.00;1.30;;;24.10;99.90;;;;;;5116392;28;20697;-88
2021/06/05 12:11:49;;;;;;;0.87;0.87;;;23.80;99.90;;;;;;5119862;28;20646;-87
2021/06/05 12:14:26;;;;;;;1.40;1.30;;;22.70;99.90;;;;;;5121144;28;20661;-87
2021/06/05 12:16:56;;;;;;;1.63;1.40;;;22.60;99.90;;;;;;5116791;28;20655;-87
2021/06/05 12:19:28;;;;;;;1.43;1.33;;;22.40;99.90;;;;;;5112934;28;20649;-86
2021/06/05 12:21:55;;;;;;;1.30;0.90;;;22.70;99.90;;;;;;5102510;28;21210;-86
2021/06/05 12:24:24;;;;;;;2.90;1.40;;;22.60;99.90;;;;;;5090544;28;20644;-87
2021/06/05 12:26:56;;;;;;;2.00;1.37;;;22.10;99.90;;;;;;5100783;28;21582;-88
2021/06/05 12:29:28;;;;;;;2.10;1.50;;;22.10;99.90;;;;;;5099815;28;20654;-86
2021/06/05 12:31:56;;;;;;;1.57;1.47;;;21.70;99.90;;;;;;5096958;28;21152;-86
2021/06/05 12:34:33;;;;;;;2.90;1.20;;;21.80;99.90;;;;;;5097004;28;20697;-86
2021/06/05 12:37:02;;;;;;;1.70;1.33;;;22.40;99.90;;;;;;5097943;28;20622;-87
2021/06/05 12:39:44;;;;;;;1.30;1.20;;;22.90;99.90;;;;;;5099978;28;20631;-85
2021/06/05 12:42:14;;;;;;;1.80;1.40;;;23.40;99.90;;;;;;5097411;28;20671;-86
2021/06/05 12:44:42;;;;;;;2.70;1.50;;;25.00;99.90;;;;;;5097756;28;20632;-87
2021/06/05 12:47:11;;;;;;;2.87;1.20;;;25.60;99.90;;;;;;5095778;28;20622;-87
2021/06/05 12:49:38;;;;;;;2.60;1.47;;;25.40;99.90;;;;;;5097173;28;20631;-87
2021/06/05 12:52:07;;;;;;;1.97;1.43;;;25.30;99.90;;;;;;5097694;28;20659;-87
2021/06/05 12:54:37;;;;;;;2.43;1.50;;;24.80;99.90;;;;;;5084201;28;20636;-86
2021/06/05 12:57:23;;;;;;;2.93;1.57;;;24.70;99.90;;;;;;5085405;28;20684;-87
2021/06/05 12:59:51;;;;;;;1.97;1.10;;;25.10;99.90;;;;;;5081956;28;20627;-86
2021/06/05 13:02:25;;;;;;;1.27;0.80;;;25.80;99.90;;;;;;5080317;28;20667;-87
2021/06/05 13:04:51;;;;;;;1.13;0.93;;;25.30;99.90;;;;;;5083002;28;20616;-87
2021/06/05 13:07:31;;;;;;;1.30;0.87;;;24.80;99.90;;;;;;5084428;28;20612;-86